sensor_id;sensor_type;location;lat;lon;timestamp;pressure;altitude;pressure_sealevel;temperature;humidity
54248;BME280;40161;39.768;2.722;2023-05-09T00:02:08;101700.50;;;16.64;73.00
54248;BME280;40161;39.768;2.722;2023-05-09T00:04:34;101705.69;;;16.69;72.63
54248;BME280;40161;39.768;2.722;2023-05-09T00:06:59;101710.94;;;16.78;72.29
54248;BME280;40161;39.768;2.722;2023-05-09T00:09:25;101699.13;;;16.88;71.68
54248;BME280;40161;39.768;2.722;2023-05-09T00:11:51;101707.78;;;16.79;71.88
54248;BME280;40161;39.768;2.722;2023-05-09T00:14:16;101671.13;;;16.52;71.93
54248;BME280;40161;39.768;2.722;2023-05-09T00:16:46;101675.59;;;16.71;71.35
54248;BME280;40161;39.768;2.722;2023-05-09T00:19:11;101692.81;;;16.91;70.69
54248;BME280;40161;39.768;2.722;2023-05-09T00:21:37;101706.69;;;16.95;71.20
54248;BME280;40161;39.768;2.722;2023-05-09T00:24:04;101712.38;;;16.65;72.28
54248;BME280;40161;39.768;2.722;2023-05-09T00:26:29;101712.19;;;16.43;74.10
54248;BME280;40161;39.768;2.722;2023-05-09T00:28:55;101709.50;;;16.50;73.91
54248;BME280;40161;39.768;2.722;2023-05-09T00:31:20;101711.22;;;16.66;72.48
54248;BME280;40161;39.768;2.722;2023-05-09T00:33:46;101701.28;;;16.65;71.56
54248;BME280;40161;39.768;2.722;2023-05-09T00:36:12;101707.78;;;16.79;71.69
54248;BME280;40161;39.768;2.722;2023-05-09T00:38:37;101657.66;;;16.54;70.39
54248;BME280;40161;39.768;2.722;2023-05-09T00:41:03;101716.94;;;16.87;70.18
54248;BME280;40161;39.768;2.722;2023-05-09T00:43:29;101683.56;;;16.73;70.95
54248;BME280;40161;39.768;2.722;2023-05-09T00:45:54;101684.75;;;16.75;70.76
54248;BME280;40161;39.768;2.722;2023-05-09T00:48:20;101679.59;;;16.74;70.04
54248;BME280;40161;39.768;2.722;2023-05-09T00:50:46;101627.16;;;16.51;70.00
54248;BME280;40161;39.768;2.722;2023-05-09T00:53:19;101674.69;;;16.53;70.83
54248;BME280;40161;39.768;2.722;2023-05-09T00:55:45;101659.84;;;16.31;72.29
54248;BME280;40161;39.768;2.722;2023-05-09T00:58:11;101643.84;;;16.10;72.27
54248;BME280;40161;39.768;2.722;2023-05-09T01:00:37;101664.28;;;16.39;72.05
54248;BME280;40161;39.768;2.722;2023-05-09T01:03:03;101664.41;;;16.57;70.43
54248;BME280;40161;39.768;2.722;2023-05-09T01:05:42;101639.78;;;16.45;70.78
54248;BME280;40161;39.768;2.722;2023-05-09T01:10:41;101662.91;;;16.19;73.80
54248;BME280;40161;39.768;2.722;2023-05-09T01:21:27;101643.66;;;16.33;71.26
54248;BME280;40161;39.768;2.722;2023-05-09T01:29:30;101643.66;;;15.92;73.80
54248;BME280;40161;39.768;2.722;2023-05-09T01:32:02;101623.91;;;15.90;73.99
54248;BME280;40161;39.768;2.722;2023-05-09T01:34:29;101613.34;;;16.06;73.84
54248;BME280;40161;39.768;2.722;2023-05-09T01:36:58;101616.31;;;16.28;72.95
54248;BME280;40161;39.768;2.722;2023-05-09T01:39:26;101611.19;;;16.33;72.18
54248;BME280;40161;39.768;2.722;2023-05-09T01:41:54;101620.63;;;16.22;72.61
54248;BME280;40161;39.768;2.722;2023-05-09T01:44:21;101621.88;;;15.87;74.46
54248;BME280;40161;39.768;2.722;2023-05-09T01:46:50;101618.44;;;15.63;75.62
54248;BME280;40161;39.768;2.722;2023-05-09T01:49:17;101636.25;;;15.62;76.23
54248;BME280;40161;39.768;2.722;2023-05-09T01:51:46;101644.16;;;15.64;76.13
54248;BME280;40161;39.768;2.722;2023-05-09T01:54:13;101606.66;;;15.33;75.50
54248;BME280;40161;39.768;2.722;2023-05-09T01:56:39;101665.28;;;15.79;75.20
54248;BME280;40161;39.768;2.722;2023-05-09T01:59:06;101661.66;;;15.72;75.21
54248;BME280;40161;39.768;2.722;2023-05-09T02:01:33;101666.66;;;15.96;74.21
54248;BME280;40161;39.768;2.722;2023-05-09T02:04:00;101669.81;;;15.95;73.50
54248;BME280;40161;39.768;2.722;2023-05-09T02:06:27;101681.41;;;16.07;73.63
54248;BME280;40161;39.768;2.722;2023-05-09T02:08:54;101680.25;;;16.12;73.29
54248;BME280;40161;39.768;2.722;2023-05-09T02:11:20;101688.13;;;16.10;73.10
54248;BME280;40161;39.768;2.722;2023-05-09T02:13:46;101636.44;;;15.80;73.41
54248;BME280;40161;39.768;2.722;2023-05-09T02:16:12;101700.41;;;16.09;72.83
54248;BME280;40161;39.768;2.722;2023-05-09T02:18:38;101650.44;;;15.61;73.60
54248;BME280;40161;39.768;2.722;2023-05-09T02:21:03;101657.94;;;15.60;74.86
54248;BME280;40161;39.768;2.722;2023-05-09T02:23:30;101669.47;;;16.03;72.94
54248;BME280;40161;39.768;2.722;2023-05-09T02:25:55;101673.06;;;16.04;72.62
54248;BME280;40161;39.768;2.722;2023-05-09T02:28:22;101627.59;;;15.34;75.47
54248;BME280;40161;39.768;2.722;2023-05-09T02:30:50;101673.19;;;15.47;76.83
54248;BME280;40161;39.768;2.722;2023-05-09T02:33:17;101680.31;;;15.48;75.48
54248;BME280;40161;39.768;2.722;2023-05-09T02:35:44;101648.00;;;15.22;76.33
54248;BME280;40161;39.768;2.722;2023-05-09T02:38:11;101683.78;;;15.41;76.86
54248;BME280;40161;39.768;2.722;2023-05-09T02:40:38;101645.03;;;15.08;77.44
54248;BME280;40161;39.768;2.722;2023-05-09T02:43:03;101670.78;;;15.42;77.72
54248;BME280;40161;39.768;2.722;2023-05-09T02:45:29;101661.81;;;15.52;76.85
54248;BME280;40161;39.768;2.722;2023-05-09T02:47:54;101613.69;;;15.27;76.58
54248;BME280;40161;39.768;2.722;2023-05-09T02:50:20;101644.31;;;15.44;77.38
54248;BME280;40161;39.768;2.722;2023-05-09T02:52:46;101641.13;;;15.42;77.04
54248;BME280;40161;39.768;2.722;2023-05-09T02:55:11;101654.69;;;15.55;77.49
54248;BME280;40161;39.768;2.722;2023-05-09T02:57:37;101655.09;;;15.53;77.04
54248;BME280;40161;39.768;2.722;2023-05-09T03:00:03;101651.72;;;15.37;77.75
54248;BME280;40161;39.768;2.722;2023-05-09T03:02:34;101665.06;;;15.61;77.81
54248;BME280;40161;39.768;2.722;2023-05-09T03:04:59;101650.66;;;15.79;76.26
54248;BME280;40161;39.768;2.722;2023-05-09T03:07:25;101626.53;;;15.79;75.73
54248;BME280;40161;39.768;2.722;2023-05-09T03:09:50;101579.53;;;15.46;75.01
54248;BME280;40161;39.768;2.722;2023-05-09T03:12:16;101611.81;;;15.68;75.69
54248;BME280;40161;39.768;2.722;2023-05-09T03:14:41;101615.03;;;15.74;75.20
54248;BME280;40161;39.768;2.722;2023-05-09T03:17:07;101609.56;;;15.81;74.45
54248;BME280;40161;39.768;2.722;2023-05-09T03:19:32;101605.63;;;15.82;74.25
54248;BME280;40161;39.768;2.722;2023-05-09T03:21:58;101625.66;;;15.72;74.17
54248;BME280;40161;39.768;2.722;2023-05-09T03:24:25;101634.22;;;15.59;74.89
54248;BME280;40161;39.768;2.722;2023-05-09T03:26:52;101604.72;;;15.37;76.75
54248;BME280;40161;39.768;2.722;2023-05-09T03:29:18;101608.78;;;15.13;77.31
54248;BME280;40161;39.768;2.722;2023-05-09T03:31:43;101597.78;;;15.20;77.45
54248;BME280;40161;39.768;2.722;2023-05-09T03:34:09;101617.25;;;15.64;75.65
54248;BME280;40161;39.768;2.722;2023-05-09T03:36:43;101564.44;;;15.39;75.13
54248;BME280;40161;39.768;2.722;2023-05-09T03:39:09;101613.59;;;15.53;75.16
54248;BME280;40161;39.768;2.722;2023-05-09T03:41:35;101611.38;;;15.32;76.74
54248;BME280;40161;39.768;2.722;2023-05-09T03:44:04;101619.97;;;15.24;76.46
54248;BME280;40161;39.768;2.722;2023-05-09T03:46:30;101567.84;;;14.92;78.14
54248;BME280;40161;39.768;2.722;2023-05-09T03:48:55;101603.25;;;15.13;78.06
54248;BME280;40161;39.768;2.722;2023-05-09T03:51:21;101606.41;;;15.11;78.19
54248;BME280;40161;39.768;2.722;2023-05-09T03:53:46;101563.19;;;15.00;77.09
54248;BME280;40161;39.768;2.722;2023-05-09T03:56:12;101616.88;;;15.29;78.05
54248;BME280;40161;39.768;2.722;2023-05-09T03:58:38;101616.34;;;15.19;78.18
54248;BME280;40161;39.768;2.722;2023-05-09T04:01:04;101616.75;;;15.18;78.19
54248;BME280;40161;39.768;2.722;2023-05-09T04:03:29;101594.06;;;15.05;78.96
54248;BME280;40161;39.768;2.722;2023-05-09T04:05:56;101604.81;;;15.14;78.92
54248;BME280;40161;39.768;2.722;2023-05-09T04:08:22;101598.47;;;15.10;79.37
54248;BME280;40161;39.768;2.722;2023-05-09T04:10:49;101561.72;;;15.09;79.14
54248;BME280;40161;39.768;2.722;2023-05-09T04:13:14;101592.44;;;15.34;77.82
54248;BME280;40161;39.768;2.722;2023-05-09T04:15:41;101594.94;;;15.47;77.00
54248;BME280;40161;39.768;2.722;2023-05-09T04:18:06;101599.25;;;15.44;78.15
54248;BME280;40161;39.768;2.722;2023-05-09T04:20:32;101590.31;;;15.58;76.66
54248;BME280;40161;39.768;2.722;2023-05-09T04:22:58;101600.78;;;15.72;76.21
54248;BME280;40161;39.768;2.722;2023-05-09T04:25:23;101602.94;;;15.55;76.41
54248;BME280;40161;39.768;2.722;2023-05-09T04:27:49;101599.63;;;15.39;77.36
54248;BME280;40161;39.768;2.722;2023-05-09T04:30:15;101610.81;;;15.19;77.83
54248;BME280;40161;39.768;2.722;2023-05-09T04:32:40;101614.50;;;14.97;79.56
54248;BME280;40161;39.768;2.722;2023-05-09T04:35:10;101611.25;;;14.91;79.61
54248;BME280;40161;39.768;2.722;2023-05-09T04:37:36;101615.69;;;15.00;79.59
54248;BME280;40161;39.768;2.722;2023-05-09T04:40:02;101610.91;;;14.96;79.40
54248;BME280;40161;39.768;2.722;2023-05-09T04:42:28;101628.56;;;15.15;79.28
54248;BME280;40161;39.768;2.722;2023-05-09T04:44:54;101616.63;;;15.07;80.83
54248;BME280;40161;39.768;2.722;2023-05-09T04:47:20;101615.59;;;15.23;80.01
54248;BME280;40161;39.768;2.722;2023-05-09T04:49:45;101556.19;;;15.09;78.63
54248;BME280;40161;39.768;2.722;2023-05-09T04:52:11;101557.25;;;14.98;77.63
54248;BME280;40161;39.768;2.722;2023-05-09T04:54:36;101603.94;;;15.06;80.31
54248;BME280;40161;39.768;2.722;2023-05-09T04:57:02;101611.38;;;15.32;79.63
54248;BME280;40161;39.768;2.722;2023-05-09T04:59:29;101607.56;;;15.44;78.96
54248;BME280;40161;39.768;2.722;2023-05-09T05:01:54;101629.66;;;15.40;78.74
54248;BME280;40161;39.768;2.722;2023-05-09T05:04:20;101611.81;;;15.38;78.87
54248;BME280;40161;39.768;2.722;2023-05-09T05:06:46;101607.03;;;15.31;79.03
54248;BME280;40161;39.768;2.722;2023-05-09T05:09:11;101562.88;;;15.05;79.14
54248;BME280;40161;39.768;2.722;2023-05-09T05:11:37;101612.72;;;15.46;78.78
54248;BME280;40161;39.768;2.722;2023-05-09T05:14:02;101602.69;;;15.34;78.55
54248;BME280;40161;39.768;2.722;2023-05-09T05:16:28;101600.19;;;15.22;80.78
54248;BME280;40161;39.768;2.722;2023-05-09T05:18:53;101594.84;;;15.36;79.47
54248;BME280;40161;39.768;2.722;2023-05-09T05:21:19;101586.72;;;15.54;79.11
54248;BME280;40161;39.768;2.722;2023-05-09T05:23:44;101597.06;;;15.60;78.63
54248;BME280;40161;39.768;2.722;2023-05-09T05:26:10;101599.84;;;15.60;78.69
54248;BME280;40161;39.768;2.722;2023-05-09T05:28:35;101606.72;;;15.40;79.15
54248;BME280;40161;39.768;2.722;2023-05-09T05:31:01;101616.59;;;15.41;79.63
54248;BME280;40161;39.768;2.722;2023-05-09T05:33:26;101572.00;;;15.09;80.10
54248;BME280;40161;39.768;2.722;2023-05-09T05:35:52;101611.59;;;15.50;79.35
54248;BME280;40161;39.768;2.722;2023-05-09T05:38:17;101611.03;;;15.37;79.87
54248;BME280;40161;39.768;2.722;2023-05-09T05:40:43;101631.75;;;15.51;80.40
54248;BME280;40161;39.768;2.722;2023-05-09T05:43:08;101637.34;;;15.58;81.61
54248;BME280;40161;39.768;2.722;2023-05-09T05:45:34;101634.72;;;15.69;80.04
54248;BME280;40161;39.768;2.722;2023-05-09T05:48:00;101640.84;;;15.85;79.48
54248;BME280;40161;39.768;2.722;2023-05-09T05:50:26;101641.28;;;15.90;79.15
54248;BME280;40161;39.768;2.722;2023-05-09T05:52:52;101644.16;;;16.01;78.83
54248;BME280;40161;39.768;2.722;2023-05-09T05:55:18;101608.03;;;15.83;78.50
54248;BME280;40161;39.768;2.722;2023-05-09T05:57:44;101640.63;;;16.04;77.70
54248;BME280;40161;39.768;2.722;2023-05-09T06:00:11;101651.00;;;16.11;77.78
54248;BME280;40161;39.768;2.722;2023-05-09T06:02:41;101667.28;;;16.20;77.99
54248;BME280;40161;39.768;2.722;2023-05-09T06:05:08;101649.91;;;16.23;77.53
54248;BME280;40161;39.768;2.722;2023-05-09T06:07:34;101662.25;;;16.32;77.82
54248;BME280;40161;39.768;2.722;2023-05-09T06:09:59;101659.94;;;16.38;77.20
54248;BME280;40161;39.768;2.722;2023-05-09T06:12:25;101660.66;;;16.31;77.84
54248;BME280;40161;39.768;2.722;2023-05-09T06:14:50;101668.25;;;16.38;78.68
54248;BME280;40161;39.768;2.722;2023-05-09T06:17:16;101648.06;;;16.41;77.42
54248;BME280;40161;39.768;2.722;2023-05-09T06:19:42;101656.41;;;16.45;77.94
54248;BME280;40161;39.768;2.722;2023-05-09T06:22:07;101646.22;;;16.56;78.07
54248;BME280;40161;39.768;2.722;2023-05-09T06:24:33;101643.53;;;16.70;77.08
54248;BME280;40161;39.768;2.722;2023-05-09T06:26:58;101592.34;;;16.53;76.46
54248;BME280;40161;39.768;2.722;2023-05-09T06:29:24;101629.38;;;16.82;77.10
54248;BME280;40161;39.768;2.722;2023-05-09T06:31:49;101612.00;;;16.89;77.30
54248;BME280;40161;39.768;2.722;2023-05-09T06:34:14;101614.00;;;16.96;77.22
54248;BME280;40161;39.768;2.722;2023-05-09T06:36:40;101601.00;;;17.07;76.60
54248;BME280;40161;39.768;2.722;2023-05-09T06:39:06;101540.28;;;16.84;76.47
54248;BME280;40161;39.768;2.722;2023-05-09T06:41:31;101588.34;;;17.20;76.25
54248;BME280;40161;39.768;2.722;2023-05-09T06:43:57;101570.94;;;17.20;76.95
54248;BME280;40161;39.768;2.722;2023-05-09T06:46:22;101525.72;;;17.08;76.63
54248;BME280;40161;39.768;2.722;2023-05-09T06:48:48;101563.47;;;17.42;76.70
54248;BME280;40161;39.768;2.722;2023-05-09T06:51:13;101566.28;;;17.49;76.28
54248;BME280;40161;39.768;2.722;2023-05-09T06:53:39;101584.53;;;17.64;75.64
54248;BME280;40161;39.768;2.722;2023-05-09T06:56:05;101578.59;;;17.73;75.17
54248;BME280;40161;39.768;2.722;2023-05-09T06:58:30;101571.09;;;17.81;74.83
54248;BME280;40161;39.768;2.722;2023-05-09T07:00:56;101571.91;;;17.92;74.65
54248;BME280;40161;39.768;2.722;2023-05-09T07:03:21;101571.09;;;17.95;74.17
54248;BME280;40161;39.768;2.722;2023-05-09T07:05:47;101561.19;;;18.01;73.19
54248;BME280;40161;39.768;2.722;2023-05-09T07:08:12;101563.97;;;18.12;72.71
54248;BME280;40161;39.768;2.722;2023-05-09T07:10:38;101558.41;;;18.15;72.70
54248;BME280;40161;39.768;2.722;2023-05-09T07:13:04;101564.38;;;18.28;73.46
54248;BME280;40161;39.768;2.722;2023-05-09T07:15:30;101570.28;;;18.41;73.23
54248;BME280;40161;39.768;2.722;2023-05-09T07:17:55;101538.56;;;18.24;74.01
54248;BME280;40161;39.768;2.722;2023-05-09T07:20:21;101581.41;;;18.52;73.71
54248;BME280;40161;39.768;2.722;2023-05-09T07:22:46;101577.81;;;18.62;73.44
54248;BME280;40161;39.768;2.722;2023-05-09T07:25:12;101524.66;;;18.35;73.09
54248;BME280;40161;39.768;2.722;2023-05-09T07:27:37;101569.47;;;18.72;72.22
54248;BME280;40161;39.768;2.722;2023-05-09T07:30:03;101570.22;;;18.80;71.93
54248;BME280;40161;39.768;2.722;2023-05-09T07:32:29;101559.88;;;18.88;70.47
54248;BME280;40161;39.768;2.722;2023-05-09T07:34:55;101525.34;;;18.74;68.98
54248;BME280;40161;39.768;2.722;2023-05-09T07:37:21;101542.31;;;19.02;66.66
54248;BME280;40161;39.768;2.722;2023-05-09T07:39:46;101548.59;;;19.16;66.14
54248;BME280;40161;39.768;2.722;2023-05-09T07:42:12;101512.91;;;19.04;65.57
54248;BME280;40161;39.768;2.722;2023-05-09T07:44:38;101528.25;;;19.30;64.54
54248;BME280;40161;39.768;2.722;2023-05-09T07:47:03;101482.25;;;19.15;64.34
54248;BME280;40161;39.768;2.722;2023-05-09T07:49:33;101494.88;;;19.27;63.20
54248;BME280;40161;39.768;2.722;2023-05-09T07:51:59;101522.13;;;19.57;63.52
54248;BME280;40161;39.768;2.722;2023-05-09T07:54:25;101516.53;;;19.64;63.17
54248;BME280;40161;39.768;2.722;2023-05-09T07:56:50;101508.16;;;19.67;63.25
54248;BME280;40161;39.768;2.722;2023-05-09T07:59:16;101468.41;;;19.60;62.92
54248;BME280;40161;39.768;2.722;2023-05-09T08:01:42;101503.22;;;19.89;62.45
54248;BME280;40161;39.768;2.722;2023-05-09T08:04:08;101476.69;;;19.74;62.29
54248;BME280;40161;39.768;2.722;2023-05-09T08:06:34;101493.94;;;20.03;61.33
54248;BME280;40161;39.768;2.722;2023-05-09T08:09:00;101487.94;;;20.05;60.67
54248;BME280;40161;39.768;2.722;2023-05-09T08:11:25;101499.75;;;20.16;59.98
54248;BME280;40161;39.768;2.722;2023-05-09T08:13:52;101491.75;;;20.22;58.20
54248;BME280;40161;39.768;2.722;2023-05-09T08:16:17;101496.84;;;20.30;57.23
54248;BME280;40161;39.768;2.722;2023-05-09T08:18:43;101496.78;;;20.37;55.70
54248;BME280;40161;39.768;2.722;2023-05-09T08:21:09;101459.94;;;20.19;55.26
54248;BME280;40161;39.768;2.722;2023-05-09T08:23:35;101494.25;;;20.47;54.90
54248;BME280;40161;39.768;2.722;2023-05-09T08:26:00;101458.19;;;20.32;53.79
54248;BME280;40161;39.768;2.722;2023-05-09T08:28:26;101494.97;;;20.58;52.48
54248;BME280;40161;39.768;2.722;2023-05-09T08:30:55;101459.63;;;20.48;52.04
54248;BME280;40161;39.768;2.722;2023-05-09T08:33:22;101452.78;;;20.56;52.41
54248;BME280;40161;39.768;2.722;2023-05-09T08:35:54;101498.63;;;20.85;51.73
54248;BME280;40161;39.768;2.722;2023-05-09T08:38:20;101501.72;;;20.91;51.05
54248;BME280;40161;39.768;2.722;2023-05-09T08:40:46;101512.84;;;20.95;51.06
54248;BME280;40161;39.768;2.722;2023-05-09T08:43:12;101475.13;;;20.83;51.51
54248;BME280;40161;39.768;2.722;2023-05-09T08:46:02;101514.50;;;21.19;52.07
54248;BME280;40161;39.768;2.722;2023-05-09T08:48:33;101508.50;;;21.21;52.37
54248;BME280;40161;39.768;2.722;2023-05-09T08:50:58;101506.38;;;21.28;51.90
54248;BME280;40161;39.768;2.722;2023-05-09T08:53:25;101520.94;;;21.43;52.30
54248;BME280;40161;39.768;2.722;2023-05-09T08:55:51;101518.88;;;21.51;53.26
54248;BME280;40161;39.768;2.722;2023-05-09T08:58:18;101507.13;;;21.60;51.78
54248;BME280;40161;39.768;2.722;2023-05-09T09:00:44;101507.63;;;21.78;49.59
54248;BME280;40161;39.768;2.722;2023-05-09T09:03:11;101505.88;;;21.88;49.25
54248;BME280;40161;39.768;2.722;2023-05-09T09:05:41;101530.06;;;21.98;49.02
54248;BME280;40161;39.768;2.722;2023-05-09T09:08:07;101517.78;;;21.92;48.42
54248;BME280;40161;39.768;2.722;2023-05-09T09:10:33;101513.00;;;21.92;48.33
54248;BME280;40161;39.768;2.722;2023-05-09T09:13:00;101479.69;;;21.78;48.24
54248;BME280;40161;39.768;2.722;2023-05-09T09:15:30;101525.94;;;22.06;48.21
54248;BME280;40161;39.768;2.722;2023-05-09T09:17:59;101522.63;;;22.11;48.28
54248;BME280;40161;39.768;2.722;2023-05-09T09:20:30;101527.66;;;22.23;47.42
54248;BME280;40161;39.768;2.722;2023-05-09T09:22:58;101529.16;;;22.28;47.13
54248;BME280;40161;39.768;2.722;2023-05-09T09:25:27;101543.78;;;22.36;47.27
54248;BME280;40161;39.768;2.722;2023-05-09T09:27:53;101516.47;;;22.23;47.48
54248;BME280;40161;39.768;2.722;2023-05-09T09:30:18;101507.28;;;22.23;46.82
54248;BME280;40161;39.768;2.722;2023-05-09T09:32:47;101532.06;;;22.44;46.25
54248;BME280;40161;39.768;2.722;2023-05-09T09:35:12;101500.28;;;22.35;46.66
54248;BME280;40161;39.768;2.722;2023-05-09T09:37:39;101487.16;;;22.32;46.81
54248;BME280;40161;39.768;2.722;2023-05-09T09:40:06;101501.63;;;22.46;47.01
54248;BME280;40161;39.768;2.722;2023-05-09T09:42:46;101529.53;;;22.70;45.75
54248;BME280;40161;39.768;2.722;2023-05-09T09:45:16;101520.50;;;22.82;46.25
54248;BME280;40161;39.768;2.722;2023-05-09T09:47:43;101484.94;;;22.63;46.14
54248;BME280;40161;39.768;2.722;2023-05-09T09:50:12;101513.53;;;22.90;45.71
54248;BME280;40161;39.768;2.722;2023-05-09T09:52:56;101499.53;;;22.90;44.70
54248;BME280;40161;39.768;2.722;2023-05-09T09:55:23;101450.06;;;22.67;45.53
54248;BME280;40161;39.768;2.722;2023-05-09T09:57:49;101491.47;;;22.96;45.37
54248;BME280;40161;39.768;2.722;2023-05-09T10:00:25;101486.78;;;23.09;44.86
54248;BME280;40161;39.768;2.722;2023-05-09T10:02:53;101451.53;;;22.92;45.30
54248;BME280;40161;39.768;2.722;2023-05-09T10:05:23;101435.16;;;22.90;44.98
54248;BME280;40161;39.768;2.722;2023-05-09T10:07:50;101475.25;;;23.24;44.73
54248;BME280;40161;39.768;2.722;2023-05-09T10:10:17;101476.34;;;23.26;45.11
54248;BME280;40161;39.768;2.722;2023-05-09T10:12:43;101468.94;;;23.36;44.97
54248;BME280;40161;39.768;2.722;2023-05-09T10:15:09;101478.31;;;23.45;43.46
54248;BME280;40161;39.768;2.722;2023-05-09T10:17:36;101474.19;;;23.50;43.78
54248;BME280;40161;39.768;2.722;2023-05-09T10:20:04;101422.66;;;23.31;43.35
54248;BME280;40161;39.768;2.722;2023-05-09T10:22:31;101454.25;;;23.64;43.59
54248;BME280;40161;39.768;2.722;2023-05-09T10:25:04;101431.56;;;23.59;42.67
54248;BME280;40161;39.768;2.722;2023-05-09T10:27:34;101420.81;;;23.57;42.68
54248;BME280;40161;39.768;2.722;2023-05-09T10:30:06;101355.63;;;23.24;42.97
54248;BME280;40161;39.768;2.722;2023-05-09T10:32:52;101455.69;;;24.02;42.59
54248;BME280;40161;39.768;2.722;2023-05-09T10:35:31;101445.50;;;24.08;43.09
54248;BME280;40161;39.768;2.722;2023-05-09T10:37:59;101414.53;;;23.99;42.01
54248;BME280;40161;39.768;2.722;2023-05-09T10:40:27;101402.31;;;24.05;42.33
54248;BME280;40161;39.768;2.722;2023-05-09T10:42:53;101437.97;;;24.34;42.24
54248;BME280;40161;39.768;2.722;2023-05-09T10:45:20;101421.94;;;24.34;41.57
54248;BME280;40161;39.768;2.722;2023-05-09T10:47:47;101386.44;;;24.15;41.34
54248;BME280;40161;39.768;2.722;2023-05-09T10:50:14;101422.53;;;24.42;41.88
54248;BME280;40161;39.768;2.722;2023-05-09T10:58:31;101387.72;;;24.39;40.06
54248;BME280;40161;39.768;2.722;2023-05-09T11:01:05;101419.78;;;24.55;40.76
54248;BME280;40161;39.768;2.722;2023-05-09T11:03:54;101413.81;;;24.53;41.43
54248;BME280;40161;39.768;2.722;2023-05-09T11:06:44;101409.31;;;24.55;40.58
54248;BME280;40161;39.768;2.722;2023-05-09T11:09:32;101414.47;;;24.57;40.76
54248;BME280;40161;39.768;2.722;2023-05-09T11:12:10;101378.00;;;24.44;41.77
54248;BME280;40161;39.768;2.722;2023-05-09T11:22:18;101388.22;;;24.63;40.65
54248;BME280;40161;39.768;2.722;2023-05-09T11:24:45;101409.94;;;24.89;41.15
54248;BME280;40161;39.768;2.722;2023-05-09T11:27:22;101408.13;;;25.07;40.26
54248;BME280;40161;39.768;2.722;2023-05-09T11:29:53;101414.78;;;25.14;40.41
54248;BME280;40161;39.768;2.722;2023-05-09T11:32:20;101398.38;;;25.12;40.29
54248;BME280;40161;39.768;2.722;2023-05-09T11:34:46;101368.03;;;25.07;39.62
54248;BME280;40161;39.768;2.722;2023-05-09T11:37:15;101395.81;;;25.52;38.82
54248;BME280;40161;39.768;2.722;2023-05-09T11:39:59;101389.75;;;25.54;38.96
54248;BME280;40161;39.768;2.722;2023-05-09T11:42:26;101374.00;;;25.56;38.37
54248;BME280;40161;39.768;2.722;2023-05-09T11:44:55;101373.09;;;25.60;38.73
54248;BME280;40161;39.768;2.722;2023-05-09T11:47:21;101372.66;;;25.61;38.63
54248;BME280;40161;39.768;2.722;2023-05-09T11:49:48;101368.81;;;25.68;38.36
54248;BME280;40161;39.768;2.722;2023-05-09T11:52:14;101362.53;;;25.64;38.18
54248;BME280;40161;39.768;2.722;2023-05-09T11:54:40;101352.97;;;25.61;38.22
54248;BME280;40161;39.768;2.722;2023-05-09T11:57:06;101366.97;;;25.74;37.94
54248;BME280;40161;39.768;2.722;2023-05-09T11:59:33;101375.72;;;25.89;37.00
54248;BME280;40161;39.768;2.722;2023-05-09T12:02:05;101373.41;;;25.96;37.46
54248;BME280;40161;39.768;2.722;2023-05-09T12:04:32;101371.59;;;26.02;37.70
54248;BME280;40161;39.768;2.722;2023-05-09T12:06:58;101354.69;;;25.80;36.55
54248;BME280;40161;39.768;2.722;2023-05-09T12:09:32;101384.28;;;26.07;36.26
54248;BME280;40161;39.768;2.722;2023-05-09T12:11:59;101371.13;;;26.26;35.91
54248;BME280;40161;39.768;2.722;2023-05-09T12:14:29;101366.41;;;26.23;35.74
54248;BME280;40161;39.768;2.722;2023-05-09T12:16:56;101361.34;;;26.40;35.29
54248;BME280;40161;39.768;2.722;2023-05-09T12:19:23;101354.75;;;26.34;36.31
54248;BME280;40161;39.768;2.722;2023-05-09T12:21:57;101348.28;;;26.24;36.61
54248;BME280;40161;39.768;2.722;2023-05-09T12:24:23;101361.50;;;26.36;36.47
54248;BME280;40161;39.768;2.722;2023-05-09T12:26:51;101350.19;;;26.27;35.66
54248;BME280;40161;39.768;2.722;2023-05-09T12:29:17;101340.19;;;26.26;36.02
54248;BME280;40161;39.768;2.722;2023-05-09T12:31:43;101307.84;;;25.99;36.64
54248;BME280;40161;39.768;2.722;2023-05-09T12:34:10;101345.66;;;26.30;36.59
54248;BME280;40161;39.768;2.722;2023-05-09T12:36:35;101351.47;;;26.35;36.42
54248;BME280;40161;39.768;2.722;2023-05-09T12:39:10;101336.47;;;26.29;35.91
54248;BME280;40161;39.768;2.722;2023-05-09T12:41:45;101299.47;;;26.40;35.95
54248;BME280;40161;39.768;2.722;2023-05-09T12:44:21;101317.97;;;26.50;35.63
54248;BME280;40161;39.768;2.722;2023-05-09T12:47:01;101285.16;;;26.25;37.52
54248;BME280;40161;39.768;2.722;2023-05-09T12:49:28;101313.28;;;26.47;37.28
54248;BME280;40161;39.768;2.722;2023-05-09T12:51:56;101272.66;;;26.26;37.49
54248;BME280;40161;39.768;2.722;2023-05-09T12:54:23;101311.88;;;26.51;38.43
54248;BME280;40161;39.768;2.722;2023-05-09T12:56:49;101326.59;;;26.56;38.30
54248;BME280;40161;39.768;2.722;2023-05-09T12:59:24;101313.56;;;26.49;39.02
54248;BME280;40161;39.768;2.722;2023-05-09T13:01:52;101315.16;;;26.50;38.93
54248;BME280;40161;39.768;2.722;2023-05-09T13:04:19;101317.69;;;26.57;38.38
54248;BME280;40161;39.768;2.722;2023-05-09T13:06:53;101323.91;;;26.52;37.92
54248;BME280;40161;39.768;2.722;2023-05-09T13:09:21;101279.06;;;26.26;38.83
54248;BME280;40161;39.768;2.722;2023-05-09T13:11:48;101312.66;;;26.52;39.56
54248;BME280;40161;39.768;2.722;2023-05-09T13:14:14;101308.78;;;26.59;39.16
54248;BME280;40161;39.768;2.722;2023-05-09T13:16:40;101297.34;;;26.53;39.72
54248;BME280;40161;39.768;2.722;2023-05-09T13:19:06;101309.69;;;26.56;39.72
54248;BME280;40161;39.768;2.722;2023-05-09T13:21:32;101303.47;;;26.61;40.29